Return to UIUC Weather Page  
Time Weather Temp Dew Pt Relative Humidity Winds Speed Gust Visibility Pressure Heat Index Wind Chill
Today
12:53PM Clear 30 18 60% Calm 10 mi 1018.4 mb 30.05 in
11:53AM Clear 30 18 60% Calm 10 mi 1018.9 mb 30.06 in
10:53AM Clear 30 16 55% Variable 5 mph 10 mi 1019.3 mb 30.08 in 24
9:53AM Partly Cloudy 28 16 60% N 8 mph 10 mi 1019.5 mb 30.08 in 20
6:53AM Mostly Cloudy 25 18 74% N 10 mph 10 mi 1016.4 mb 29.99 in 15
5:53AM Cloudy 27 18 68% N 11 mph 10 mi 1015.6 mb 29.97 in 17
4:53AM Cloudy 27 18 68% N 13 mph 10 mi 1014.6 mb 29.94 in 16
3:53AM Cloudy 27 19 71% NW 11 mph 10 mi 1014.2 mb 29.93 in 17
3:14AM Cloudy 28 18 65% NW 17 mph 10 mi 1013.2 mb 29.92 in 16
2:53AM Cloudy 28 19 68% NW 17 mph 10 mi 1013.4 mb 29.91 in 16
1:53AM Cloudy 28 18 65% NW 11 mph 10 mi 1012.4 mb 29.88 in 18
1:30AM Cloudy 27 19 71% NW 13 mph 10 mi 1011.2 mb 29.86 in 16
12:53AM Cloudy 28 18 65% NW 16 mph 10 mi 1011.3 mb 29.85 in 16
Yesterday
Time Weather Temp Dew Pt Relative Humidity Winds Speed Gust Visibility Pressure Heat Index Wind Chill
11:25PM Partly Cloudy 28 18 65% NW 20 mph 10 mi 1008.8 mb 29.79 in 15
10:53PM Cloudy 30 19 63% NW 23 mph 36 mph 10 mi 1008.2 mb 29.77 in 17
8:53PM Cloudy 36 27 69% NW 21 mph 10 mi 1004.8 mb 29.67 in 25
7:53PM Cloudy 37 28 69% NW 24 mph 39 mph 10 mi 1003.4 mb 29.63 in 26
6:53PM Cloudy 37 30 75% W 34 mph 42 mph 10 mi 1002.1 mb 29.59 in 24
5:53PM Cloudy 39 30 69% W 29 mph 41 mph 10 mi 1000.7 mb 29.55 in 27
3:53PM Cloudy 41 34 75% W 33 mph 47 mph 10 mi 997.7 mb 29.46 in 29
Observations made at University of Illinois Willard Airport